createdAt,value
2018-12-22T09:03:29.294Z,93.18
2018-12-22T09:04:29.196Z,94.11
2018-12-22T09:05:29.183Z,95.50
2018-12-22T09:06:29.172Z,93.71
2018-12-22T09:07:29.163Z,92.13
2018-12-22T09:08:29.180Z,90.75
2018-12-22T09:09:29.139Z,89.52
2018-12-22T09:10:29.128Z,88.39
2018-12-22T09:11:29.115Z,88.59
2018-12-22T09:12:29.112Z,88.59
2018-12-22T09:13:29.095Z,88.14
2018-12-22T09:14:29.112Z,88.18
2018-12-22T09:15:29.084Z,87.88
2018-12-22T09:16:29.063Z,88.08
2018-12-22T09:17:29.047Z,88.64
2018-12-22T09:18:29.059Z,89.25
2018-12-22T09:19:29.028Z,89.91
2018-12-22T09:20:37.333Z,90.32
2018-12-22T09:21:29.004Z,91.04
2018-12-22T09:22:28.998Z,91.04
2018-12-22T09:23:28.987Z,91.08
2018-12-22T09:24:28.970Z,91.60
2018-12-22T09:25:29.000Z,91.29
2018-12-22T09:26:36.818Z,91.70
2018-12-22T09:27:28.938Z,91.91
2018-12-22T09:28:28.928Z,92.11
2018-12-22T09:29:29.758Z,92.32
2018-12-22T09:30:38.766Z,92.63
2018-12-22T09:31:28.920Z,92.42
2018-12-22T09:32:28.883Z,92.32
2018-12-22T09:33:28.878Z,92.57
2018-12-22T09:34:28.865Z,92.57
2018-12-22T09:35:28.848Z,92.67
2018-12-22T09:36:28.869Z,92.21
2018-12-22T09:37:28.829Z,92.36
2018-12-22T09:38:28.884Z,92.46
2018-12-22T09:39:28.862Z,92.05
2018-12-22T09:40:28.791Z,92.11
2018-12-22T09:41:28.784Z,92.05
2018-12-22T09:42:28.828Z,92.16
2018-12-22T09:43:28.757Z,92.25
2018-12-22T09:44:28.745Z,92.46
2018-12-22T09:45:28.735Z,92.25
2018-12-22T09:46:28.723Z,92.36
2018-12-22T09:47:28.712Z,92.36
2018-12-22T09:48:28.727Z,92.57
2018-12-22T09:49:28.691Z,92.36
2018-12-22T09:50:28.683Z,92.05
2018-12-22T09:51:28.667Z,92.25
2018-12-22T09:52:28.656Z,92.20
2018-12-22T09:53:28.671Z,92.25
2018-12-22T09:54:28.656Z,92.05
2018-12-22T09:55:28.625Z,91.85
2018-12-22T09:56:28.610Z,90.92
2018-12-22T09:57:28.602Z,90.66
2018-12-22T09:58:28.593Z,90.34
2018-12-22T09:59:28.735Z,90.14
2018-12-22T10:00:28.572Z,90.55
2018-12-22T10:01:28.572Z,90.66
2018-12-22T10:02:28.550Z,90.86
2018-12-22T10:03:28.544Z,90.66
2018-12-22T10:04:28.556Z,90.75
2018-12-22T10:05:28.511Z,90.96
2018-12-22T10:06:28.509Z,90.03
2018-12-22T10:07:28.492Z,90.55
2018-12-22T10:08:28.486Z,90.14
2018-12-22T10:09:28.479Z,90.00
2018-12-22T10:10:28.509Z,90.14
2018-12-22T10:11:28.459Z,90.55
2018-12-22T10:12:28.436Z,90.24
2018-12-22T10:13:28.428Z,89.94
2018-12-22T10:14:28.414Z,90.20
2018-12-22T10:15:28.453Z,89.38
2018-12-22T10:16:28.390Z,88.29
2018-12-22T10:17:28.381Z,88.39
2018-12-22T10:18:28.401Z,88.39
2018-12-22T10:19:28.352Z,88.39
2018-12-22T10:20:28.341Z,89.01
2018-12-22T10:21:28.366Z,89.22
2018-12-22T10:22:28.323Z,89.83
2018-12-22T10:23:28.320Z,89.22
2018-12-22T10:24:28.299Z,89.01
2018-12-22T10:25:28.285Z,89.01
2018-12-22T10:26:28.273Z,88.80
2018-12-22T10:27:28.281Z,89.25
2018-12-22T10:28:28.250Z,89.15
2018-12-22T10:29:28.241Z,89.67
2018-12-22T10:30:28.244Z,88.70
2018-12-22T10:31:28.216Z,88.43
2018-12-22T10:32:28.234Z,88.43
2018-12-22T10:33:28.194Z,89.25
2018-12-22T10:34:28.183Z,88.33
2018-12-22T10:35:28.172Z,88.64
2018-12-22T10:36:28.162Z,88.53
2018-12-22T10:37:28.155Z,88.43
2018-12-22T10:38:28.159Z,88.95
2018-12-22T10:39:28.128Z,89.25
2018-12-22T10:40:28.116Z,89.15
2018-12-22T10:41:28.106Z,89.46
2018-12-22T10:42:28.094Z,89.67
2018-12-22T10:43:28.124Z,90.08
2018-12-22T10:44:28.071Z,89.87
2018-12-22T10:45:28.062Z,90.49
2018-12-22T10:46:28.050Z,90.39
2018-12-22T10:47:28.084Z,90.69
2018-12-22T10:48:28.057Z,90.69
2018-12-22T10:49:28.013Z,91.00
2018-12-22T10:50:28.003Z,90.59
2018-12-22T10:51:27.994Z,90.59
2018-12-22T10:52:27.980Z,89.97
2018-12-22T10:53:27.969Z,90.28
2018-12-22T10:54:28.002Z,88.95
2018-12-22T10:55:27.948Z,88.43
2018-12-22T10:56:27.942Z,87.09
2018-12-22T10:57:27.926Z,87.30
2018-12-22T10:58:27.914Z,87.03
2018-12-22T10:59:27.902Z,87.03
2018-12-22T11:00:27.906Z,87.92
2018-12-22T11:01:27.884Z,87.54
2018-12-22T11:02:27.870Z,86.72
2018-12-22T11:03:27.859Z,86.72
2018-12-22T11:04:27.845Z,86.41
2018-12-22T11:05:27.866Z,87.24
2018-12-22T11:06:27.823Z,87.24
2018-12-22T11:07:27.813Z,87.65
2018-12-22T11:08:27.800Z,87.03
2018-12-22T11:09:27.792Z,87.44
2018-12-22T11:10:27.778Z,87.34
2018-12-22T11:11:27.796Z,87.44
2018-12-22T11:12:27.756Z,87.13
2018-12-22T11:13:27.743Z,87.30
2018-12-22T11:14:27.735Z,86.99
2018-12-22T11:15:27.720Z,86.99
2018-12-22T11:16:27.710Z,86.99
2018-12-22T11:17:27.720Z,86.88
2018-12-22T11:18:27.688Z,86.06
2018-12-22T11:19:27.682Z,84.77
2018-12-22T11:20:27.664Z,86.31
2018-12-22T11:21:27.652Z,86.61
2018-12-22T11:22:27.673Z,86.00
2018-12-22T11:23:27.633Z,85.44
2018-12-22T11:24:27.618Z,85.55
2018-12-22T11:25:27.608Z,85.86
2018-12-22T11:26:27.598Z,86.27
2018-12-22T11:27:27.585Z,85.65
2018-12-22T11:28:27.605Z,85.34
2018-12-22T11:29:27.564Z,84.72
2018-12-22T11:30:27.550Z,84.52
2018-12-22T11:31:34.846Z,84.42
2018-12-22T11:32:28.530Z,85.34
2018-12-22T11:33:27.517Z,84.56
2018-12-22T11:34:27.534Z,85.17
2018-12-22T11:35:27.600Z,85.55
2018-12-22T11:36:27.487Z,85.17
2018-12-22T11:37:27.473Z,84.87
2018-12-22T11:38:27.458Z,84.45
2018-12-22T11:39:27.449Z,84.97
2018-12-22T11:40:27.484Z,85.28
2018-12-22T11:41:27.426Z,84.97
2018-12-22T11:42:27.417Z,85.69
2018-12-22T11:43:27.408Z,86.10
2018-12-22T11:44:27.393Z,85.89
2018-12-22T11:45:27.409Z,86.00
2018-12-22T11:46:27.372Z,86.52
2018-12-22T11:47:27.356Z,85.07
2018-12-22T11:48:27.347Z,84.56
2018-12-22T11:49:27.334Z,85.59
2018-12-22T11:50:27.327Z,84.35
2018-12-22T11:51:27.339Z,84.05
2018-12-22T11:52:27.307Z,84.56
2018-12-22T11:53:27.291Z,85.52
2018-12-22T11:54:27.283Z,85.63
2018-12-22T11:55:27.266Z,85.69
2018-12-22T11:56:27.256Z,84.66
2018-12-22T11:57:27.265Z,84.35
2018-12-22T11:58:27.234Z,84.70
2018-12-22T11:59:27.222Z,84.29
2018-12-22T12:00:27.208Z,83.98
2018-12-22T12:01:27.198Z,84.19
2018-12-22T12:02:27.215Z,83.98
2018-12-22T12:03:27.176Z,83.87
2018-12-22T12:04:27.165Z,82.95
2018-12-22T12:05:27.153Z,83.15
2018-12-22T12:06:27.142Z,83.47
2018-12-22T12:07:27.135Z,84.19
2018-12-22T12:08:27.150Z,84.39
2018-12-22T12:09:27.110Z,83.71
2018-12-22T12:10:27.096Z,83.50
2018-12-22T12:11:27.088Z,84.64
2018-12-22T12:12:27.075Z,84.64
2018-12-22T12:13:27.063Z,83.61
2018-12-22T12:14:27.069Z,83.61
2018-12-22T12:15:27.040Z,84.43
2018-12-22T12:16:27.033Z,84.43
2018-12-22T12:17:27.020Z,85.25
2018-12-22T12:18:27.005Z,85.83
2018-12-22T12:19:27.024Z,85.73
2018-12-22T12:20:27.186Z,85.52
2018-12-22T12:21:26.973Z,85.63
2018-12-22T12:22:26.961Z,84.39
2018-12-22T12:23:26.959Z,84.70
2018-12-22T12:24:26.939Z,84.08
2018-12-22T12:25:26.957Z,84.19
2018-12-22T12:26:26.918Z,84.08
2018-12-22T12:27:26.908Z,84.43
2018-12-22T12:28:26.898Z,85.52
2018-12-22T12:29:26.883Z,85.22
2018-12-22T12:30:26.872Z,85.31
2018-12-22T12:31:26.891Z,85.11
2018-12-22T12:32:26.846Z,85.52
2018-12-22T12:33:26.837Z,85.83
2018-12-22T12:34:26.837Z,86.08
2018-12-22T12:35:26.813Z,85.77
2018-12-22T12:36:26.829Z,86.43
2018-12-22T12:37:26.789Z,87.26
2018-12-22T12:38:26.779Z,87.26
2018-12-22T12:39:26.767Z,86.84
2018-12-22T12:40:26.763Z,87.19
2018-12-22T12:41:26.744Z,87.35
2018-12-22T12:42:26.753Z,87.26
2018-12-22T12:43:26.723Z,87.15
2018-12-22T12:44:26.710Z,88.08
2018-12-22T12:45:26.701Z,87.29
2018-12-22T12:46:26.689Z,86.26
2018-12-22T12:47:26.700Z,86.47
2018-12-22T12:48:26.667Z,86.36
2018-12-22T12:49:26.654Z,87.08
2018-12-22T12:50:26.647Z,87.40
2018-12-22T12:51:26.632Z,86.05
2018-12-22T12:52:26.650Z,86.94
2018-12-22T12:53:26.611Z,86.94
2018-12-22T12:54:26.597Z,86.94
2018-12-22T12:55:26.599Z,86.22
2018-12-22T12:56:26.584Z,86.02
2018-12-22T12:57:27.201Z,86.74
2018-12-22T12:58:26.583Z,86.32
2018-12-22T12:59:26.541Z,85.19
2018-12-22T13:00:26.532Z,85.50
2018-12-22T13:01:26.518Z,84.61
2018-12-22T13:02:26.510Z,85.33
2018-12-22T13:03:26.498Z,85.64
2018-12-22T13:04:26.507Z,86.16
2018-12-22T13:05:26.473Z,86.53
2018-12-22T13:06:26.468Z,87.05
2018-12-22T13:07:26.451Z,86.02
2018-12-22T13:08:26.441Z,85.81
2018-12-22T13:09:26.644Z,86.12
2018-12-22T13:10:26.416Z,85.81
2018-12-22T13:11:26.404Z,85.67
2018-12-22T13:12:26.396Z,85.15
2018-12-22T13:13:26.383Z,85.25
2018-12-22T13:14:26.373Z,85.25
2018-12-22T13:15:26.381Z,84.84
2018-12-22T13:16:26.350Z,84.33
2018-12-22T13:17:26.338Z,84.53
2018-12-22T13:18:26.327Z,84.43
2018-12-22T13:19:26.317Z,84.19
2018-12-22T13:20:26.336Z,84.29
2018-12-22T13:21:26.292Z,84.33
2018-12-22T13:22:26.282Z,84.22
2018-12-22T13:23:26.273Z,84.19
2018-12-22T13:24:26.262Z,83.19
2018-12-22T13:25:26.245Z,82.98
2018-12-22T13:26:26.254Z,83.91
2018-12-22T13:27:26.227Z,83.91
2018-12-22T13:28:26.213Z,83.56
2018-12-22T13:29:26.205Z,83.40
2018-12-22T13:30:26.195Z,83.29
2018-12-22T13:31:26.206Z,83.67
2018-12-22T13:32:26.168Z,83.71
2018-12-22T13:33:26.160Z,82.98
2018-12-22T13:34:26.146Z,82.43
2018-12-22T13:35:26.137Z,82.16
2018-12-22T13:36:34.290Z,82.26
2018-12-22T13:37:27.126Z,82.57
2018-12-22T13:38:26.099Z,82.82
2018-12-22T13:39:26.087Z,83.44
2018-12-22T13:40:26.075Z,83.75
2018-12-22T13:41:26.066Z,83.44
2018-12-22T13:42:26.073Z,83.44
2018-12-22T13:43:26.042Z,83.03
2018-12-22T13:44:26.031Z,82.92
2018-12-22T13:45:26.020Z,83.44
2018-12-22T13:46:26.008Z,82.92
2018-12-22T13:47:26.038Z,83.54
2018-12-22T13:48:26.079Z,83.54
2018-12-22T13:49:26.204Z,83.64
2018-12-22T13:50:26.146Z,83.33
2018-12-22T13:51:26.089Z,83.44
2018-12-22T13:52:27.377Z,82.82
2018-12-22T13:53:25.945Z,83.03
2018-12-22T13:54:25.921Z,82.92
2018-12-22T13:55:25.908Z,83.03
2018-12-22T13:56:25.895Z,83.64
2018-12-22T13:57:25.884Z,83.85
2018-12-22T13:58:25.890Z,83.81
2018-12-22T13:59:25.864Z,83.81
2018-12-22T14:00:25.849Z,84.01
2018-12-22T14:01:25.839Z,83.81
2018-12-22T14:02:25.827Z,83.81
2018-12-22T14:03:25.833Z,83.81
2018-12-22T14:04:25.806Z,83.15
2018-12-22T14:05:25.794Z,82.98
2018-12-22T14:06:25.781Z,82.89
2018-12-22T14:07:25.773Z,82.98
2018-12-22T14:08:25.778Z,82.89
2018-12-22T14:09:25.746Z,83.71
2018-12-22T14:10:25.735Z,83.29
2018-12-22T14:11:25.729Z,83.05
2018-12-22T14:12:25.715Z,82.74
2018-12-22T14:13:25.723Z,83.29
2018-12-22T14:14:25.690Z,83.40
2018-12-22T14:15:25.679Z,83.56
2018-12-22T14:16:25.670Z,83.40
2018-12-22T14:17:25.665Z,83.26
2018-12-22T14:18:25.664Z,83.56
2018-12-22T14:19:25.642Z,83.77
2018-12-22T14:20:25.626Z,83.77
2018-12-22T14:21:25.612Z,83.87
2018-12-22T14:22:25.601Z,83.87
2018-12-22T14:23:25.609Z,83.87
2018-12-22T14:24:25.578Z,83.81
2018-12-22T14:25:25.567Z,83.56
2018-12-22T14:26:25.557Z,83.77
2018-12-22T14:27:25.552Z,83.98
2018-12-22T14:28:25.548Z,83.47
2018-12-22T14:29:25.535Z,83.67
2018-12-22T14:30:25.529Z,84.08
2018-12-22T14:31:25.499Z,83.77
2018-12-22T14:32:27.040Z,84.19
2018-12-22T14:33:25.494Z,84.08
2018-12-22T14:34:25.464Z,83.87
2018-12-22T14:35:25.460Z,83.98
2018-12-22T14:36:25.442Z,83.87
2018-12-22T14:37:25.432Z,84.29
2018-12-22T14:38:25.436Z,84.39
2018-12-22T14:39:25.435Z,83.77
2018-12-22T14:40:25.401Z,84.01
2018-12-22T14:41:25.386Z,84.08
2018-12-22T14:42:25.377Z,84.08
2018-12-22T14:43:25.391Z,84.19
2018-12-22T14:44:25.355Z,83.98
2018-12-22T14:45:25.339Z,84.39
2018-12-22T14:46:25.327Z,84.49
2018-12-22T14:47:25.315Z,84.59
2018-12-22T14:48:25.324Z,84.29
2018-12-22T14:49:25.293Z,84.59
2018-12-22T14:50:25.285Z,84.70
2018-12-22T14:51:25.272Z,85.01
2018-12-22T14:52:25.261Z,85.11
2018-12-22T14:53:25.283Z,85.01
2018-12-22T14:54:25.247Z,85.01
2018-12-22T14:55:25.227Z,85.31
2018-12-22T14:56:25.215Z,85.52
2018-12-22T14:57:25.205Z,85.11
2018-12-22T14:58:25.208Z,85.11
2018-12-22T14:59:25.183Z,85.31
2018-12-22T15:00:25.170Z,85.73
2018-12-22T15:01:25.158Z,85.83
2018-12-22T15:02:25.146Z,86.15
2018-12-22T15:03:25.152Z,85.73
2018-12-22T15:04:25.125Z,85.94
2018-12-22T15:05:25.112Z,85.87
2018-12-22T15:06:25.103Z,85.73
2018-12-22T15:07:25.092Z,86.08
2018-12-22T15:08:25.099Z,86.08
2018-12-22T15:09:25.067Z,85.83
2018-12-22T15:10:25.055Z,85.52
2018-12-22T15:11:25.043Z,86.45
2018-12-22T15:12:25.049Z,85.83
2018-12-22T15:13:25.038Z,86.08
2018-12-22T15:14:25.012Z,85.94
2018-12-22T15:15:25.002Z,86.76
2018-12-22T15:16:24.987Z,86.87
2018-12-22T15:17:24.980Z,86.18
2018-12-22T15:18:24.980Z,85.94
2018-12-22T15:19:24.955Z,86.66
2018-12-22T15:20:24.945Z,86.87
2018-12-22T15:21:24.934Z,86.87
2018-12-22T15:22:24.918Z,86.24
2018-12-22T15:23:24.927Z,86.35
2018-12-22T15:24:24.896Z,86.87
2018-12-22T15:25:24.885Z,85.94
2018-12-22T15:26:24.876Z,85.94
2018-12-22T15:27:24.864Z,86.15
2018-12-22T15:28:24.868Z,86.45
2018-12-22T15:29:24.840Z,86.15
2018-12-22T15:30:24.831Z,85.83
2018-12-22T15:31:24.827Z,86.15
2018-12-22T15:32:24.807Z,86.61
2018-12-22T15:33:24.811Z,86.24
2018-12-22T15:34:24.783Z,86.66
2018-12-22T15:35:24.771Z,86.35
2018-12-22T15:36:24.775Z,86.45
2018-12-22T15:37:24.751Z,86.45
2018-12-22T15:38:24.755Z,86.76
2018-12-22T15:39:24.729Z,86.97
2018-12-22T15:40:24.716Z,86.45
2018-12-22T15:41:24.705Z,86.45
2018-12-22T15:42:24.692Z,86.76
2018-12-22T15:43:24.696Z,86.87
2018-12-22T15:44:24.670Z,86.66
2018-12-22T15:45:24.659Z,86.76
2018-12-22T15:46:24.647Z,86.66
2018-12-22T15:47:24.636Z,86.87
2018-12-22T15:48:24.638Z,86.76
2018-12-22T15:49:24.612Z,86.76
2018-12-22T15:50:24.602Z,86.82
2018-12-22T15:51:24.590Z,86.76
2018-12-22T15:52:24.580Z,86.76
2018-12-22T15:53:24.583Z,86.76
2018-12-22T15:54:24.561Z,86.87
2018-12-22T15:55:24.547Z,87.34
2018-12-22T15:56:24.535Z,86.87
2018-12-22T15:57:24.523Z,87.44
2018-12-22T15:58:24.530Z,87.27
2018-12-22T15:59:24.499Z,87.24
2018-12-22T16:00:24.487Z,87.07
2018-12-22T16:01:24.483Z,86.61
2018-12-22T16:02:24.463Z,87.13
2018-12-22T16:03:24.471Z,86.93
2018-12-22T16:04:24.442Z,87.48
2018-12-22T16:05:24.432Z,87.27
2018-12-22T16:06:24.416Z,86.97
2018-12-22T16:07:24.408Z,87.24
2018-12-22T16:08:24.420Z,86.82
2018-12-22T16:09:24.384Z,87.48
2018-12-22T16:10:24.373Z,87.85
2018-12-22T16:11:24.367Z,87.48
2018-12-22T16:12:24.354Z,87.17
2018-12-22T16:13:24.360Z,86.87
2018-12-22T16:14:24.327Z,86.76
2018-12-22T16:15:24.317Z,87.38
2018-12-22T16:16:24.309Z,87.90
2018-12-22T16:17:24.294Z,87.38
2018-12-22T16:18:24.298Z,87.27
2018-12-22T16:19:24.273Z,87.17
2018-12-22T16:20:24.261Z,87.38
2018-12-22T16:21:24.248Z,86.97
2018-12-22T16:22:24.239Z,87.69
2018-12-22T16:23:24.245Z,87.17
2018-12-22T16:24:24.214Z,87.59
2018-12-22T16:25:24.203Z,86.87
2018-12-22T16:26:24.191Z,87.59
2018-12-22T16:27:24.179Z,87.07
2018-12-22T16:28:24.195Z,87.79
2018-12-22T16:29:24.156Z,86.66
2018-12-22T16:30:24.254Z,87.27
2018-12-22T16:31:24.134Z,87.07
2018-12-22T16:32:24.123Z,87.24
2018-12-22T16:33:24.131Z,87.27
2018-12-22T16:34:24.107Z,87.17
2018-12-22T16:35:24.088Z,87.24
2018-12-22T16:36:24.078Z,87.24
2018-12-22T16:37:24.065Z,87.24
2018-12-22T16:38:24.073Z,87.27
2018-12-22T16:39:24.046Z,87.48
2018-12-22T16:40:24.032Z,87.03
2018-12-22T16:41:24.021Z,87.24
2018-12-22T16:42:24.009Z,87.24
2018-12-22T16:43:24.020Z,86.41
2018-12-22T16:44:23.988Z,87.44
2018-12-22T16:45:23.975Z,87.34
2018-12-22T16:46:23.966Z,87.13
2018-12-22T16:47:23.952Z,85.89
2018-12-22T16:48:23.962Z,86.66
2018-12-22T16:49:23.931Z,87.34
2018-12-22T16:50:23.921Z,87.38
2018-12-22T16:51:23.908Z,87.17
2018-12-22T16:52:23.901Z,87.03
2018-12-22T16:53:23.905Z,87.59
2018-12-22T16:54:23.876Z,86.97
2018-12-22T16:55:23.864Z,86.35
2018-12-22T16:56:23.851Z,86.87
2018-12-22T16:57:23.840Z,87.38
2018-12-22T16:58:23.850Z,87.27
2018-12-22T16:59:23.816Z,87.69
2018-12-22T17:00:23.806Z,87.48
2018-12-22T17:01:23.792Z,87.79
2018-12-22T17:02:23.786Z,87.38
2018-12-22T17:03:23.791Z,87.69
2018-12-22T17:04:23.762Z,87.48
2018-12-22T17:05:23.749Z,87.48
2018-12-22T17:06:23.739Z,87.38
2018-12-22T17:07:23.725Z,87.27
2018-12-22T17:08:23.735Z,87.17
2018-12-22T17:09:23.708Z,87.99
2018-12-22T17:10:23.700Z,87.59
2018-12-22T17:11:23.682Z,87.38
2018-12-22T17:12:23.669Z,87.79
2018-12-22T17:13:23.674Z,87.48
2018-12-22T17:14:23.645Z,87.59
2018-12-22T17:15:23.930Z,87.38
2018-12-22T17:16:23.633Z,87.38
2018-12-22T17:17:23.612Z,87.69
2018-12-22T17:18:23.617Z,87.69
2018-12-22T17:19:23.588Z,87.48
2018-12-22T17:20:23.578Z,87.79
2018-12-22T17:21:23.567Z,87.99
2018-12-22T17:22:23.572Z,87.48
2018-12-22T17:23:23.575Z,87.79
2018-12-22T17:24:23.533Z,87.38
2018-12-22T17:25:23.520Z,87.38
2018-12-22T17:26:23.509Z,87.48
2018-12-22T17:27:23.501Z,87.65
2018-12-22T17:28:28.189Z,87.38
2018-12-22T17:29:24.475Z,87.75
2018-12-22T17:30:23.464Z,87.75
2018-12-22T17:31:23.452Z,87.65
2018-12-22T17:32:23.444Z,87.65
2018-12-22T17:33:23.435Z,87.75
2018-12-22T17:34:23.443Z,87.65
2018-12-22T17:35:23.408Z,87.75
2018-12-22T17:36:25.414Z,87.54
2018-12-22T17:37:23.384Z,87.75
2018-12-22T17:38:23.376Z,87.75
2018-12-22T17:39:23.383Z,88.89
2018-12-22T17:40:23.352Z,88.68
2018-12-22T17:41:23.341Z,88.68
2018-12-22T17:42:23.332Z,88.68
2018-12-22T17:43:23.317Z,88.26
2018-12-22T17:44:23.327Z,88.47
2018-12-22T17:45:23.295Z,88.47
2018-12-22T17:46:23.288Z,89.40
2018-12-22T17:47:23.271Z,89.61
2018-12-22T17:48:23.261Z,90.01
2018-12-22T17:49:23.265Z,90.06
2018-12-22T17:50:23.240Z,90.64
2018-12-22T17:51:23.229Z,90.64
2018-12-22T17:52:23.216Z,90.22
2018-12-22T17:53:23.458Z,91.05
2018-12-22T17:54:23.217Z,90.84
2018-12-22T17:55:23.185Z,91.05
2018-12-22T17:56:23.171Z,90.73
2018-12-22T17:57:23.162Z,91.05
2018-12-22T17:58:23.150Z,91.25
2018-12-22T17:59:23.154Z,91.00
2018-12-22T18:00:23.129Z,91.25
2018-12-22T18:01:23.119Z,91.25
2018-12-22T18:02:23.108Z,90.84
2018-12-22T18:03:27.358Z,91.15
2018-12-22T18:04:23.080Z,91.21
2018-12-22T18:05:23.068Z,91.21
2018-12-22T18:06:23.056Z,91.31
2018-12-22T18:07:23.046Z,90.84
2018-12-22T18:08:23.050Z,91.21
2018-12-22T18:09:23.021Z,91.21
2018-12-22T18:10:23.012Z,91.11
2018-12-22T18:11:23.000Z,91.31
2018-12-22T18:12:22.990Z,91.42
2018-12-22T18:13:23.004Z,91.52
2018-12-22T18:14:22.965Z,91.42
2018-12-22T18:15:22.953Z,91.21
2018-12-22T18:16:22.943Z,91.11
2018-12-22T18:17:22.933Z,91.21
2018-12-22T18:18:22.922Z,91.21
2018-12-22T18:19:22.924Z,90.90
2018-12-22T18:20:22.897Z,90.94
2018-12-22T18:21:22.890Z,90.90
2018-12-22T18:22:22.876Z,90.84
2018-12-22T18:23:22.868Z,91.15
2018-12-22T18:24:22.880Z,91.21
2018-12-22T18:25:22.841Z,90.69
2018-12-22T18:26:22.830Z,90.90
2018-12-22T18:27:22.819Z,91.11
2018-12-22T18:28:22.810Z,90.39
2018-12-22T18:29:22.796Z,90.12
2018-12-22T18:30:22.805Z,90.33
2018-12-22T18:31:22.775Z,90.39
2018-12-22T18:32:22.761Z,89.91
2018-12-22T18:33:22.751Z,89.87
2018-12-22T18:34:22.739Z,90.39
2018-12-22T18:35:22.756Z,90.28
2018-12-22T18:36:22.719Z,90.08
2018-12-22T18:37:22.705Z,89.56
2018-12-22T18:38:22.692Z,89.56
2018-12-22T18:39:23.339Z,89.67
2018-12-22T18:40:22.671Z,89.46
2018-12-22T18:41:22.675Z,88.84
2018-12-22T18:42:22.647Z,88.95
2018-12-22T18:43:22.636Z,88.64
2018-12-22T18:44:22.626Z,88.33
2018-12-22T18:45:22.617Z,88.43
2018-12-22T18:46:22.630Z,88.33
2018-12-22T18:47:22.591Z,88.43
2018-12-22T18:48:22.581Z,87.71
2018-12-22T18:49:22.571Z,87.60
2018-12-22T18:50:22.557Z,87.71
2018-12-22T18:51:22.546Z,87.19
2018-12-22T18:52:22.555Z,87.40
2018-12-22T18:53:22.524Z,86.99
2018-12-22T18:54:22.512Z,87.40
2018-12-22T18:55:22.498Z,87.40
2018-12-22T18:56:22.494Z,86.99
2018-12-22T18:57:22.508Z,87.71
2018-12-22T18:58:22.467Z,87.51
2018-12-22T18:59:22.459Z,87.71
2018-12-22T19:00:22.542Z,87.09
2018-12-22T19:01:22.432Z,87.51
2018-12-22T19:02:22.423Z,87.34
2018-12-22T19:03:22.432Z,87.19
2018-12-22T19:04:22.399Z,87.71
2018-12-22T19:05:22.386Z,87.60
2018-12-22T19:06:22.379Z,87.40
2018-12-22T19:07:22.372Z,87.71
2018-12-22T19:08:22.383Z,87.19
2018-12-22T19:09:22.344Z,87.30
2018-12-22T19:10:22.330Z,87.24
2018-12-22T19:11:22.323Z,87.60
2018-12-22T19:12:22.391Z,87.30
2018-12-22T19:13:22.358Z,87.30
2018-12-22T19:14:22.301Z,87.30
2018-12-22T19:15:22.273Z,87.34
2018-12-22T19:16:22.263Z,87.30
2018-12-22T19:17:22.257Z,87.40
2018-12-22T19:18:22.246Z,87.71
2018-12-22T19:19:22.248Z,87.51
2018-12-22T19:20:22.217Z,87.60
2018-12-22T19:21:22.215Z,87.40
2018-12-22T19:22:22.201Z,87.60
2018-12-22T19:23:22.186Z,87.40
2018-12-22T19:24:22.196Z,86.99
2018-12-22T19:25:22.161Z,87.09
2018-12-22T19:26:22.148Z,87.09
2018-12-22T19:27:22.138Z,87.09
2018-12-22T19:28:22.125Z,86.06
2018-12-22T19:29:22.132Z,87.09
2018-12-22T19:30:22.101Z,87.51
2018-12-22T19:31:22.095Z,87.60
2018-12-22T19:32:22.081Z,87.30
2018-12-22T19:33:22.067Z,87.19
2018-12-22T19:34:22.081Z,87.30
2018-12-22T19:35:22.045Z,86.88
2018-12-22T19:36:22.034Z,87.19
2018-12-22T19:37:22.022Z,87.19
2018-12-22T19:38:22.011Z,87.30
2018-12-22T19:39:22.014Z,87.19
2018-12-22T19:40:21.988Z,87.60
2018-12-22T19:41:21.979Z,86.99
2018-12-22T19:42:21.964Z,87.60
2018-12-22T19:43:21.959Z,86.99
2018-12-22T19:44:21.963Z,86.37
2018-12-22T19:45:21.936Z,87.09
2018-12-22T19:46:21.923Z,86.99
2018-12-22T19:47:21.910Z,87.40
2018-12-22T19:48:21.899Z,87.19
2018-12-22T19:49:21.909Z,87.71
2018-12-22T19:50:21.877Z,87.71
2018-12-22T19:51:21.863Z,87.60
2018-12-22T19:52:21.856Z,88.74
2018-12-22T19:53:21.843Z,88.95
2018-12-22T19:54:21.845Z,88.53
2018-12-22T19:55:21.821Z,88.53
2018-12-22T19:56:21.807Z,88.74
2018-12-22T19:57:21.796Z,88.12
2018-12-22T19:58:21.783Z,87.60
2018-12-22T19:59:21.791Z,88.53
2018-12-22T20:00:21.760Z,88.43
2018-12-22T20:01:21.753Z,88.43
2018-12-22T20:02:21.741Z,88.74
2018-12-22T20:03:21.728Z,88.74
2018-12-22T20:04:21.737Z,88.74
2018-12-22T20:05:21.705Z,88.95
2018-12-22T20:06:21.699Z,87.92
2018-12-22T20:07:21.681Z,88.64
2018-12-22T20:08:21.671Z,88.43
2018-12-22T20:09:21.678Z,88.33
2018-12-22T20:10:21.648Z,88.43
2018-12-22T20:11:21.637Z,88.53
2018-12-22T20:12:21.626Z,88.43
2018-12-22T20:13:21.615Z,88.33
2018-12-22T20:14:21.624Z,88.33
2018-12-22T20:15:21.589Z,88.53
2018-12-22T20:16:21.580Z,88.74
2018-12-22T20:17:21.569Z,88.95
2018-12-22T20:18:21.558Z,88.74
2018-12-22T20:19:21.563Z,88.74
2018-12-22T20:20:21.533Z,88.95
2018-12-22T20:21:21.523Z,89.25
2018-12-22T20:22:21.511Z,89.36
2018-12-22T20:23:21.500Z,88.84
2018-12-22T20:24:21.505Z,89.05
2018-12-22T20:25:21.478Z,88.95
2018-12-22T20:26:21.467Z,88.84
2018-12-22T20:27:21.456Z,88.84
2018-12-22T20:28:21.445Z,89.15
2018-12-22T20:29:21.450Z,89.05
2018-12-22T20:30:21.425Z,89.25
2018-12-22T20:31:21.411Z,89.36
2018-12-22T20:32:21.399Z,89.25
2018-12-22T20:33:21.391Z,89.15
2018-12-22T20:34:21.395Z,89.25
2018-12-22T20:35:21.364Z,89.05
2018-12-22T20:36:21.354Z,89.05
2018-12-22T20:37:21.343Z,88.43
2018-12-22T20:38:21.332Z,88.43
2018-12-22T20:39:21.340Z,88.33
2018-12-22T20:40:21.309Z,88.43
2018-12-22T20:41:21.299Z,88.74
2018-12-22T20:42:21.288Z,88.43
2018-12-22T20:43:21.273Z,88.53
2018-12-22T20:44:21.280Z,88.53
2018-12-22T20:45:21.254Z,88.43
2018-12-22T20:46:21.241Z,88.37
2018-12-22T20:47:21.229Z,88.43
2018-12-22T20:48:21.223Z,88.43
2018-12-22T20:49:21.231Z,88.43
2018-12-22T20:50:21.197Z,88.02
2018-12-22T20:51:21.186Z,88.33
2018-12-22T20:52:21.173Z,88.43
2018-12-22T20:53:21.162Z,88.57
2018-12-22T20:54:21.168Z,88.33
2018-12-22T20:55:21.139Z,88.53
2018-12-22T20:56:21.136Z,88.64
2018-12-22T20:57:21.117Z,88.53
2018-12-22T20:58:21.106Z,88.43
2018-12-22T20:59:21.110Z,88.74
2018-12-22T21:00:21.083Z,87.92
2018-12-22T21:01:21.075Z,87.92
2018-12-22T21:02:21.066Z,88.74
2018-12-22T21:03:21.068Z,87.60
2018-12-22T21:04:21.037Z,87.60
2018-12-22T21:05:21.027Z,87.60
2018-12-22T21:06:21.015Z,87.71
2018-12-22T21:07:21.002Z,87.71
2018-12-22T21:08:21.039Z,87.51
2018-12-22T21:09:20.983Z,87.40
2018-12-22T21:10:20.975Z,87.40
2018-12-22T21:11:20.960Z,87.51
2018-12-22T21:12:20.948Z,87.19
2018-12-22T21:13:20.938Z,87.19
2018-12-22T21:14:20.947Z,87.19
2018-12-22T21:15:20.915Z,87.09
2018-12-22T21:16:20.904Z,87.71
2018-12-22T21:17:20.888Z,87.30
2018-12-22T21:18:20.879Z,87.09
2018-12-22T21:19:20.888Z,87.09
2018-12-22T21:20:20.857Z,87.51
2018-12-22T21:21:20.845Z,87.51
2018-12-22T21:22:20.833Z,87.71
2018-12-22T21:23:20.841Z,86.58
2018-12-22T21:24:20.816Z,86.99
2018-12-22T21:25:20.800Z,87.71
2018-12-22T21:26:20.788Z,86.68
2018-12-22T21:27:20.813Z,86.58
2018-12-22T21:28:20.784Z,86.58
2018-12-22T21:29:20.788Z,86.16
2018-12-22T21:30:20.745Z,86.27
2018-12-22T21:31:20.745Z,85.96
2018-12-22T21:32:20.719Z,85.96
2018-12-22T21:33:20.748Z,85.24
2018-12-22T21:34:28.173Z,85.14
2018-12-22T21:35:21.685Z,85.44
2018-12-22T21:36:20.675Z,85.86
2018-12-22T21:37:20.680Z,85.86
2018-12-22T21:38:20.671Z,85.44
2018-12-22T21:39:20.642Z,85.34
2018-12-22T21:40:20.630Z,84.62
2018-12-22T21:41:20.617Z,84.93
2018-12-22T21:42:20.607Z,85.24
2018-12-22T21:43:20.612Z,84.93
2018-12-22T21:44:20.584Z,85.24
2018-12-22T21:45:20.573Z,85.14
2018-12-22T21:46:20.563Z,85.44
2018-12-22T21:47:20.552Z,85.55
2018-12-22T21:48:20.558Z,85.44
2018-12-22T21:49:20.527Z,85.34
2018-12-22T21:50:20.514Z,85.44
2018-12-22T21:51:20.509Z,85.86
2018-12-22T21:52:20.493Z,85.86
2018-12-22T21:53:20.500Z,85.65
2018-12-22T21:54:20.470Z,85.24
2018-12-22T21:55:20.459Z,85.34